METAR Data
IDs: Format: Raw Decoded Include TAF

Data at: 1817 UTC 16 Oct 2021

KIIB 161755Z AUTO 30013G21KT 10SM CLR 15/02 A3013 RMK AO2 T01460016